Pocahontas, AR

12:31 PM CDT on August 27, 2016 (GMT -0500)
Rural Ravenden Springs | | Change Station
Active Advisory: Flood Warning

Elev 680 ft 36.31 °N, 91.20 °W | Updated 12 minutes ago

Partly Cloudy
Partly Cloudy
88.9 °F
Feels Like 99 °F
N
0.0
Wind Variable Wind from ESE

Today
High -- | Low -- °F
--% Chance of Precip.
Yesterday
High -- | Low -- °F
Precip. -- in
Pressure 30.06 in
Visibility 10.0 miles
Clouds Few 2500 ft
Heat Index 99 °F
Dew Point 75 °F
Humidity 63%
Rainfall 0.00 in
Snow Depth Not available.
6:32 AM 7:38 PM
Waning Crescent, 23% visible
METAR KARG 271715Z AUTO 00000KT 10SM FEW025 29/23 A3006 RMK AO1
Pressure 30.06 in
Visibility 10.0 miles
Clouds Few 2500 ft
Heat Index 99 °F
Dew Point 75 °F
Humidity 63%
Rainfall 0.00 in
Snow Depth Not available.
6:32 AM 7:38 PM
Waning Crescent, 23% visible
METAR KARG 271715Z AUTO 00000KT 10SM FEW025 29/23 A3006 RMK AO1

10-Day Weather Forecast

Almanac

Astronomy

Aug. 27, 2016 Rise Set
Actual Time
Civil Twilight
Nautical Twilight
Astronomical Twilight
Moon
Length of Visible Light
Length of Day
Tomorrow will be .
, % of the Moon is Illuminated

Today's Extremes

State Highs State Lows

Community

WunderPhotos

Upload Photos

1,935,387 photos uploaded!

WunderBlog® & News

Nearby

Air Quality

  Air Quality AQ Index Pollutant
Not available.

Snow Depth

Station Depth Elevation

Earthquake Activity

City Distance Mag. Time & Date
Minimum magnitude displayed is 2.5.

Coastal Water Temperatures

Place Temperature

Stations

Nearby Weather Stations

Station Location Temp. Windchill Dew Point Humidity Wind Precip. Elev Updated Type
                   

Watches & Warnings

Flood Warning
Issued: 9:29 AM CDT Aug. 27, 2016 – National Weather Service

The Flood Warning continues for
the Black River at Pocahontas.
* Until further notice... or until the warning is cancelled.
* At 9:00 am Saturday the stage was 20.1 feet.
* Minor flooding is occurring and minor flooding is forecast.
* Flood stage is 17.0 feet.
* Forecast... the river will continue to fall to a stage of 19.5 feet
by Sunday morning.
* Impacts at 20.0 feet... flooding of backwater up tributaries is
spreading into lands along the current, Fourche, and black rivers.
Water is spreading towards the northern edge of the Airport.




             Fld observed forecast 6 am
location stg stg day time sun Mon Tue Wed Thu

Black River
Pocahontas 17 20.1 Sat 09 am 19.5 18.8 18.0 17.5 17.1




Lat... Lon 3612 9115 3625 9106 3630 9095 3620 9089
3617 9098 3610 9101